Time;durP1;ratioP1;P1;durP2;ratioP2;P2;SDS_P1;SDS_P2;PMS_P1;PMS_P2;Temp;Humidity;BMP_temperature;BMP_pressure;BME280_temperature;BME280_humidity;BME280_pressure;Samples;Min_cycle;Max_cycle;Signal;HPM_P1;HPM_P2
2021/07/15 00:01:59;;;;;;;7.87;4.30;;;;;;;16.67;82.99;99799.97;5120785;28;21058;-78
2021/07/15 00:04:26;;;;;;;13.93;6.03;;;;;;;16.93;82.77;99802.13;5119609;28;20463;-78
2021/07/15 00:06:52;;;;;;;6.67;3.83;;;;;;;17.18;81.97;99803.59;5117404;27;20483;-78
2021/07/15 00:09:20;;;;;;;7.90;3.90;;;;;;;17.28;81.89;99802.22;5118247;28;20478;-78
2021/07/15 00:11:48;;;;;;;11.03;4.30;;;;;;;17.38;81.04;99804.59;5117414;27;20988;-77
2021/07/15 00:14:17;;;;;;;14.00;4.50;;;;;;;17.43;81.02;99798.56;5118197;28;20431;-78
2021/07/15 00:16:45;;;;;;;9.20;4.43;;;;;;;17.49;80.74;99812.16;5117466;27;20502;-78
2021/07/15 00:19:14;;;;;;;11.50;4.43;;;;;;;17.28;80.33;99813.03;5116768;28;20459;-78
2021/07/15 00:21:41;;;;;;;8.10;4.50;;;;;;;17.16;81.10;99816.47;5117738;28;20883;-77
2021/07/15 00:24:08;;;;;;;16.87;4.80;;;;;;;17.07;81.39;99807.66;5117948;28;20443;-78
2021/07/15 00:26:34;;;;;;;9.37;4.30;;;;;;;17.10;81.57;99796.47;5117687;27;20524;-78
2021/07/15 00:29:01;;;;;;;10.13;4.23;;;;;;;17.20;81.40;99798.81;5117344;28;20482;-77
2021/07/15 00:31:28;;;;;;;10.80;4.20;;;;;;;17.21;80.89;99793.22;5117269;27;20509;-77
2021/07/15 00:33:56;;;;;;;11.90;4.20;;;;;;;17.38;81.17;99791.09;5117435;28;20514;-77
2021/07/15 00:36:23;;;;;;;8.77;3.90;;;;;;;17.17;81.11;99796.50;5116796;27;21157;-78
2021/07/15 00:38:49;;;;;;;10.77;3.77;;;;;;;17.21;81.46;99792.41;5117578;28;20442;-77
2021/07/15 00:41:16;;;;;;;6.00;4.00;;;;;;;18.19;77.78;99790.56;5116601;27;20506;-76
2021/07/15 00:43:43;;;;;;;7.43;3.63;;;;;;;18.32;77.47;99794.34;5118098;28;20538;-76
2021/07/15 00:46:09;;;;;;;9.57;3.97;;;;;;;18.22;76.82;99800.94;5116097;27;20528;-77
2021/07/15 00:48:36;;;;;;;6.80;4.17;;;;;;;18.05;77.79;99803.19;5117865;28;20745;-76
2021/07/15 00:51:05;;;;;;;9.77;4.23;;;;;;;18.27;77.83;99803.06;5116104;27;20541;-76
2021/07/15 00:53:32;;;;;;;12.07;4.07;;;;;;;18.23;77.12;99810.75;5105152;28;20539;-77
2021/07/15 00:55:59;;;;;;;8.27;4.23;;;;;;;18.26;77.13;99806.78;5102504;27;20506;-77
2021/07/15 00:58:26;;;;;;;6.83;4.27;;;;;;;18.41;76.86;99804.78;5104061;28;20519;-76
2021/07/15 01:00:53;;;;;;;6.30;3.50;;;;;;;18.39;76.81;99806.03;5103301;28;20546;-78
2021/07/15 01:03:21;;;;;;;6.17;3.70;;;;;;;18.42;77.07;99816.47;5102869;28;20476;-77
2021/07/15 01:05:49;;;;;;;7.47;4.30;;;;;;;18.33;76.69;99820.34;5102747;28;20565;-77
2021/07/15 01:08:17;;;;;;;7.67;3.97;;;;;;;18.48;76.06;99822.94;5104063;28;20518;-77
2021/07/15 01:10:47;;;;;;;7.50;4.07;;;;;;;18.42;76.13;99821.88;5103053;27;20475;-77
2021/07/15 01:13:20;;;;;;;8.03;3.90;;;;;;;18.27;76.58;99821.19;5103378;28;20523;-77
2021/07/15 01:15:55;;;;;;;6.30;4.57;;;;;;;18.09;77.19;99836.09;5095287;27;20542;-77
2021/07/15 01:18:29;;;;;;;6.23;4.10;;;;;;;17.90;78.43;99848.47;5103162;28;20450;-77
2021/07/15 01:21:12;;;;;;;8.13;4.40;;;;;;;17.77;78.88;99848.31;5102413;27;20558;-76
2021/07/15 01:24:10;;;;;;;15.20;4.23;;;;;;;17.82;78.70;99851.28;5103196;28;20439;-77
2021/07/15 01:27:09;;;;;;;11.30;4.57;;;;;;;17.69;79.41;99844.75;5102099;28;20527;-77
2021/07/15 01:30:05;;;;;;;10.77;5.23;;;;;;;17.69;79.67;99838.50;5103260;28;20448;-77
2021/07/15 01:32:36;;;;;;;9.83;4.30;;;;;;;17.80;78.92;99843.34;5102333;28;20495;-77
2021/07/15 01:35:05;;;;;;;11.93;4.77;;;;;;;17.83;78.96;99834.84;5103148;28;20428;-77
2021/07/15 01:37:32;;;;;;;9.50;4.47;;;;;;;17.71;78.97;99839.16;5102348;28;21059;-77
2021/07/15 01:40:01;;;;;;;11.70;4.97;;;;;;;17.79;78.89;99851.66;5102526;28;20478;-77
2021/07/15 01:42:28;;;;;;;10.30;4.70;;;;;;;17.79;78.96;99844.38;5100835;28;20507;-78
2021/07/15 01:44:56;;;;;;;16.23;4.70;;;;;;;17.74;79.33;99840.59;5103128;28;20436;-78
2021/07/15 01:47:23;;;;;;;15.83;5.40;;;;;;;17.92;78.61;99832.84;5102326;27;20507;-78
2021/07/15 01:49:50;;;;;;;7.67;4.73;;;;;;;17.91;78.38;99831.19;5104151;28;20527;-79
2021/07/15 01:52:18;;;;;;;18.33;5.37;;;;;;;17.94;78.45;99827.25;5105004;28;20483;-78
2021/07/15 01:54:46;;;;;;;17.47;5.57;;;;;;;17.80;78.83;99832.53;5102633;28;20436;-78
2021/07/15 01:57:13;;;;;;;11.87;5.17;;;;;;;17.79;78.94;99830.84;5102060;27;20497;-77
2021/07/15 01:59:41;;;;;;;8.13;4.90;;;;;;;17.65;79.23;99829.97;5102435;28;20924;-78
2021/07/15 02:02:10;;;;;;;13.20;5.00;;;;;;;17.66;79.54;99842.44;5101664;28;20506;-78
2021/07/15 02:04:38;;;;;;;14.50;6.13;;;;;;;17.65;79.51;99839.91;5100964;28;20446;-78
2021/07/15 02:07:05;;;;;;;10.30;5.23;;;;;;;17.57;79.65;99837.34;5102022;28;20490;-77
2021/07/15 02:09:32;;;;;;;12.03;5.67;;;;;;;17.66;79.54;99830.78;5102093;28;20459;-77
2021/07/15 02:11:59;;;;;;;12.00;4.87;;;;;;;17.81;79.18;99839.63;5101351;27;20563;-77
2021/07/15 02:14:26;;;;;;;9.30;5.40;;;;;;;17.77;79.16;99851.03;5102351;28;20472;-77
2021/07/15 02:16:55;;;;;;;9.27;4.87;;;;;;;17.72;79.66;99850.78;5101319;27;20486;-78
2021/07/15 02:19:23;;;;;;;10.40;5.10;;;;;;;17.58;80.11;99844.44;5101525;28;20451;-77
2021/07/15 02:21:50;;;;;;;8.63;4.90;;;;;;;17.63;80.06;99845.53;5101096;28;20510;-78
2021/07/15 02:24:20;;;;;;;10.17;4.40;;;;;;;17.73;79.70;99847.06;5101933;28;21086;-78
2021/07/15 02:26:50;;;;;;;13.40;5.70;;;;;;;17.79;79.41;99851.66;5101127;27;20503;-77
2021/07/15 02:29:17;;;;;;;8.10;4.90;;;;;;;17.87;79.07;99854.25;5101999;28;20493;-77
2021/07/15 02:31:47;;;;;;;11.30;4.70;;;;;;;17.90;78.87;99842.19;5101196;27;20786;-78
2021/07/15 02:34:20;;;;;;;8.70;5.40;;;;;;;17.84;79.14;99839.22;5102186;28;20475;-78
2021/07/15 02:36:48;;;;;;;11.67;4.80;;;;;;;17.73;79.24;99830.84;5100523;27;21276;-77
2021/07/15 02:39:15;;;;;;;11.73;5.37;;;;;;;17.58;79.63;99834.47;5095327;28;20491;-77
2021/07/15 02:41:41;;;;;;;10.30;5.23;;;;;;;17.74;79.15;99825.25;5100154;28;21069;-77
2021/07/15 02:44:08;;;;;;;7.93;4.30;;;;;;;17.81;78.56;99814.44;5101600;28;20543;-79
2021/07/15 02:46:36;;;;;;;13.50;4.77;;;;;;;17.95;78.34;99802.72;5100685;27;20544;-79
2021/07/15 02:49:03;;;;;;;9.70;4.20;;;;;;;18.03;78.02;99802.53;5100712;28;20516;-79
2021/07/15 02:51:30;;;;;;;7.80;4.20;;;;;;;17.96;77.94;99801.66;5100902;27;20535;-79
2021/07/15 02:53:58;;;;;;;18.33;4.87;;;;;;;17.97;78.07;99814.16;5101738;28;20459;-79
2021/07/15 02:56:29;;;;;;;10.90;4.23;;;;;;;18.00;78.11;99794.84;5100230;28;20518;-77
2021/07/15 02:59:03;;;;;;;12.90;4.40;;;;;;;17.92;78.26;99803.09;5101227;28;20482;-78
2021/07/15 03:01:33;;;;;;;7.13;4.63;;;;;;;17.83;78.34;99804.28;5100677;27;20459;-78
2021/07/15 03:04:03;;;;;;;16.60;5.07;;;;;;;17.79;78.30;99816.50;5100535;28;20478;-78
2021/07/15 03:06:35;;;;;;;5.93;3.97;;;;;;;17.63;78.31;99829.31;5100610;27;20559;-78
2021/07/15 03:09:05;;;;;;;7.70;4.77;;;;;;;17.40;79.30;99839.53;5101566;28;20503;-78
2021/07/15 03:11:37;;;;;;;7.77;4.50;;;;;;;17.19;80.25;99843.91;5100470;28;20762;-78
2021/07/15 03:14:05;;;;;;;12.63;4.87;;;;;;;17.11;80.48;99844.03;5101155;28;20523;-77
2021/07/15 03:16:34;;;;;;;10.70;4.80;;;;;;;17.15;80.55;99841.78;5100641;27;20459;-77
2021/07/15 03:19:03;;;;;;;8.53;4.47;;;;;;;17.25;80.20;99836.91;5100351;28;20472;-77
2021/07/15 03:21:31;;;;;;;7.20;4.40;;;;;;;17.23;80.01;99842.50;5100247;28;20471;-76
2021/07/15 03:23:58;;;;;;;8.47;5.07;;;;;;;17.12;80.35;99854.66;5100480;28;20518;-76
2021/07/15 03:26:27;;;;;;;16.20;6.10;;;;;;;17.00;81.31;99860.78;5100367;27;20520;-77
2021/07/15 03:28:54;;;;;;;8.07;4.67;;;;;;;16.99;81.44;99859.09;5101543;28;20475;-78
2021/07/15 03:31:23;;;;;;;7.90;5.50;;;;;;;17.10;80.94;99853.19;5099664;28;20500;-78
2021/07/15 03:33:51;;;;;;;12.60;4.50;;;;;;;17.23;80.43;99850.59;5100226;28;20506;-78
2021/07/15 03:36:18;;;;;;;9.83;5.30;;;;;;;17.15;80.56;99868.81;5099964;27;20475;-77
2021/07/15 03:38:46;;;;;;;11.60;6.47;;;;;;;17.19;80.54;99860.13;5103075;28;20514;-78
2021/07/15 03:41:13;;;;;;;7.90;6.13;;;;;;;17.16;80.60;99860.50;5101292;28;20479;-78
2021/07/15 03:43:43;;;;;;;8.13;5.10;;;;;;;17.28;80.53;99866.25;5101061;28;20448;-78
2021/07/15 03:46:10;;;;;;;9.97;6.00;;;;;;;17.19;80.60;99876.34;5099718;28;20482;-78
2021/07/15 03:48:37;;;;;;;14.30;6.33;;;;;;;17.28;80.46;99867.06;5100749;28;20487;-78
2021/07/15 03:51:07;;;;;;;6.93;6.20;;;;;;;17.43;80.37;99877.81;5099580;28;20728;-78
2021/07/15 03:53:34;;;;;;;16.30;6.30;;;;;;;17.68;79.47;99870.09;5093835;28;20538;-78
2021/07/15 03:56:02;;;;;;;13.87;6.40;;;;;;;17.79;78.64;99876.81;5100009;27;20555;-78
2021/07/15 03:58:29;;;;;;;16.70;6.23;;;;;;;17.79;78.24;99871.41;5100616;28;21087;-78
2021/07/15 04:01:00;;;;;;;9.00;4.80;;;;;;;17.74;78.70;99873.91;5099814;28;20479;-78
2021/07/15 04:03:28;;;;;;;15.60;5.77;;;;;;;17.65;78.99;99875.06;5100288;28;20451;-78
2021/07/15 04:05:55;;;;;;;9.83;5.53;;;;;;;17.65;78.60;99875.91;5100114;27;20839;-77
2021/07/15 04:08:24;;;;;;;8.00;5.33;;;;;;;17.60;79.16;99886.47;5100121;28;20444;-77
2021/07/15 04:10:53;;;;;;;10.80;5.97;;;;;;;17.52;79.28;99886.63;5099026;28;20551;-77
2021/07/15 04:13:21;;;;;;;14.20;5.70;;;;;;;17.35;79.67;99888.75;5100863;28;20550;-77
2021/07/15 04:16:10;;;;;;;12.03;5.10;;;;;;;17.35;79.59;99888.75;5099982;27;20829;-77
2021/07/15 04:18:39;;;;;;;8.00;4.93;;;;;;;17.15;80.54;99890.41;5092957;28;20483;-77
2021/07/15 04:21:06;;;;;;;11.27;5.23;;;;;;;17.24;80.24;99891.97;5099768;27;20475;-78
2021/07/15 04:23:33;;;;;;;13.93;5.40;;;;;;;17.31;80.90;99887.47;5100494;28;20976;-78
2021/07/15 04:26:00;;;;;;;5.80;4.40;;;;;;;17.13;81.26;99882.50;5100149;28;20471;-77
2021/07/15 04:28:27;;;;;;;12.23;4.70;;;;;;;17.43;81.80;99887.75;5102768;28;20817;-83
2021/07/15 04:30:55;;;;;;;8.60;4.90;;;;;;;17.47;81.14;99873.69;5103950;27;20519;-84
2021/07/15 04:33:25;;;;;;;8.30;4.80;;;;;;;17.51;80.28;99876.81;5103364;28;20518;-80
2021/07/15 04:35:54;;;;;;;6.77;4.20;;;;;;;17.64;78.73;99876.94;5096943;28;20546;-79
2021/07/15 04:38:23;;;;;;;6.83;4.93;;;;;;;17.29;80.27;99884.97;5096611;28;20475;-81
2021/07/15 04:40:50;;;;;;;9.43;5.97;;;;;;;16.97;81.52;99891.69;5102370;28;20499;-79
2021/07/15 04:43:16;;;;;;;10.90;6.00;;;;;;;16.87;81.74;99896.56;5090118;28;20535;-79
2021/07/15 04:45:44;;;;;;;10.00;4.60;;;;;;;16.93;82.09;99893.09;5100581;27;20471;-79
2021/07/15 04:48:12;;;;;;;10.30;4.60;;;;;;;16.94;82.30;99898.31;5102919;28;20450;-78
2021/07/15 04:50:40;;;;;;;13.37;4.80;;;;;;;16.90;82.13;99907.81;5102178;28;20559;-75
2021/07/15 04:53:08;;;;;;;16.20;5.67;;;;;;;16.96;81.91;99900.84;5101828;28;20494;-77
2021/07/15 04:55:36;;;;;;;22.00;5.57;;;;;;;16.86;82.22;99897.59;5103708;28;20542;-77
2021/07/15 04:58:04;;;;;;;10.53;5.23;;;;;;;16.99;82.00;99900.44;5103268;28;20721;-77
2021/07/15 05:00:32;;;;;;;12.83;4.90;;;;;;;16.90;81.68;99910.50;5101475;28;20544;-78
2021/07/15 05:03:00;;;;;;;14.37;5.23;;;;;;;16.98;81.76;99900.63;5102303;28;20451;-78
2021/07/15 05:05:27;;;;;;;14.30;5.20;;;;;;;16.99;81.56;99913.09;5102455;27;21001;-78
2021/07/15 05:07:55;;;;;;;18.13;6.07;;;;;;;17.04;82.07;99916.06;5099368;28;22507;-77
2021/07/15 05:10:22;;;;;;;10.53;5.97;;;;;;;16.97;81.56;99923.25;5102277;28;20535;-78
2021/07/15 05:12:49;;;;;;;29.67;15.43;;;;;;;16.96;81.32;99922.44;5102557;28;20491;-78
2021/07/15 05:15:15;;;;;;;30.53;22.50;;;;;;;17.02;81.20;99912.72;5101799;28;20514;-78
2021/07/15 05:17:42;;;;;;;35.53;26.80;;;;;;;17.09;80.84;99913.63;5102617;28;20483;-77
2021/07/15 05:20:10;;;;;;;34.27;25.17;;;;;;;17.20;80.68;99905.00;5101772;28;20511;-77
2021/07/15 05:22:36;;;;;;;36.60;24.60;;;;;;;17.36;80.41;99903.09;5101464;28;20534;-78
2021/07/15 05:25:06;;;;;;;33.33;25.57;;;;;;;17.52;80.15;99902.00;5103395;28;20478;-78
2021/07/15 05:27:33;;;;;;;23.83;16.50;;;;;;;17.42;79.83;99900.44;5103538;28;20501;-79
2021/07/15 05:30:00;;;;;;;27.20;20.80;;;;;;;17.37;80.53;99892.09;5102255;28;20486;-78
2021/07/15 05:32:27;;;;;;;22.50;17.00;;;;;;;17.57;79.71;99894.13;5101690;27;20999;-77
2021/07/15 05:34:54;;;;;;;21.40;14.17;;;;;;;17.92;78.84;99895.06;5099657;28;20443;-77
2021/07/15 05:37:20;;;;;;;20.80;12.87;;;;;;;18.01;78.19;99909.28;5100712;28;20483;-77
2021/07/15 05:39:47;;;;;;;20.70;9.97;;;;;;;17.99;77.79;99909.47;5102350;28;20531;-77
2021/07/15 05:42:15;;;;;;;22.27;9.60;;;;;;;18.04;78.20;99909.72;5099755;28;20486;-77
2021/07/15 05:44:42;;;;;;;14.80;8.30;;;;;;;18.10;77.44;99913.47;5101686;28;20444;-77
2021/07/15 05:47:09;;;;;;;17.03;7.77;;;;;;;18.28;76.17;99907.59;5101213;28;20475;-77
2021/07/15 05:49:36;;;;;;;11.00;5.83;;;;;;;18.18;76.87;99913.34;5100053;28;20472;-77
2021/07/15 05:52:04;;;;;;;9.27;6.10;;;;;;;18.11;76.92;99919.75;5101876;27;20510;-77
2021/07/15 05:54:30;;;;;;;19.10;8.23;;;;;;;18.45;76.04;99924.31;5098736;28;20477;-77
2021/07/15 05:56:57;;;;;;;21.30;8.00;;;;;;;18.59;75.18;99928.78;5092195;28;20466;-77
2021/07/15 05:59:25;;;;;;;12.07;6.70;;;;;;;18.87;75.09;99927.88;5115608;28;20457;-77
2021/07/15 06:01:52;;;;;;;14.03;6.80;;;;;;;18.85;74.81;99935.34;5104565;28;20463;-77
2021/07/15 06:04:18;;;;;;;35.43;7.17;;;;;;;19.13;73.56;99939.81;5120742;28;20510;-76
2021/07/15 06:06:45;;;;;;;12.57;4.70;;;;;;;19.49;72.86;99942.19;5121235;28;21010;-77
2021/07/15 06:09:12;;;;;;;8.60;5.17;;;;;;;19.86;70.49;99944.53;5122395;28;20485;-77
2021/07/15 06:11:38;;;;;;;15.33;5.00;;;;;;;20.65;68.31;99937.31;5104704;28;20546;-77
2021/07/15 06:14:05;;;;;;;17.03;4.80;;;;;;;21.23;66.01;99933.69;5103734;28;20535;-76
2021/07/15 06:16:34;;;;;;;20.17;4.80;;;;;;;22.10;63.67;99944.81;5121190;28;21040;-77
2021/07/15 06:19:00;;;;;;;9.37;3.30;;;;;;;22.36;62.36;99954.63;5119913;28;21022;-77
2021/07/15 06:21:27;;;;;;;14.13;3.73;;;;;;;22.47;60.27;99953.03;5120585;28;20529;-77
2021/07/15 06:23:54;;;;;;;6.97;2.43;;;;;;;22.36;60.44;99968.25;5104712;28;20451;-77
2021/07/15 06:26:20;;;;;;;8.70;2.90;;;;;;;21.38;63.23;99964.16;5120600;28;20458;-77
2021/07/15 06:28:47;;;;;;;8.70;3.00;;;;;;;21.13;64.35;99974.97;5121720;28;20600;-76
2021/07/15 06:31:14;;;;;;;10.23;3.00;;;;;;;22.16;61.92;99971.13;5121579;28;20635;-77
2021/07/15 06:33:42;;;;;;;14.37;3.60;;;;;;;22.93;60.35;99978.94;5101094;28;20992;-77
2021/07/15 06:36:09;;;;;;;15.43;4.80;;;;;;;23.60;56.92;99977.22;5098818;28;20482;-77
2021/07/15 06:38:37;;;;;;;13.60;3.60;;;;;;;27.10;48.94;99974.59;5100721;28;20452;-77
2021/07/15 06:41:05;;;;;;;7.07;2.33;;;;;;;28.44;43.20;99981.31;5100848;28;20483;-77
2021/07/15 06:43:32;;;;;;;6.20;2.20;;;;;;;28.53;42.32;99971.44;5100111;28;20475;-78
2021/07/15 06:45:59;;;;;;;17.50;4.20;;;;;;;29.82;40.38;99978.22;5100727;27;20995;-77
2021/07/15 06:48:25;;;;;;;15.87;3.23;;;;;;;28.76;41.23;99961.94;5100901;28;20452;-78
2021/07/15 06:50:53;;;;;;;7.97;2.40;;;;;;;30.29;38.81;99967.97;5098310;27;20514;-78
2021/07/15 06:53:20;;;;;;;14.70;3.17;;;;;;;29.64;39.50;99966.59;5100758;28;20487;-78
2021/07/15 06:55:47;;;;;;;15.77;3.30;;;;;;;30.22;38.79;99968.25;5100809;28;20524;-78
2021/07/15 06:58:14;;;;;;;8.37;2.13;;;;;;;31.47;35.73;99962.81;5099266;28;20498;-78
2021/07/15 07:00:40;;;;;;;10.50;2.27;;;;;;;31.25;34.90;99966.00;5100446;28;20475;-77
2021/07/15 07:03:07;;;;;;;11.27;2.30;;;;;;;30.87;35.01;99959.28;5100758;28;20439;-77
2021/07/15 07:05:34;;;;;;;8.80;2.10;;;;;;;31.13;34.51;99971.06;5099601;28;20643;-77
2021/07/15 07:08:02;;;;;;;7.37;1.70;;;;;;;31.49;34.28;99959.75;5100695;28;20486;-77
2021/07/15 07:10:29;;;;;;;10.00;2.27;;;;;;;31.72;34.26;99961.03;5100909;28;20535;-77
2021/07/15 07:12:55;;;;;;;9.87;2.00;;;;;;;30.22;36.50;99962.75;5099340;28;20494;-77
2021/07/15 07:15:22;;;;;;;10.53;2.53;;;;;;;31.30;35.47;99962.38;5100810;28;20458;-77
2021/07/15 07:17:50;;;;;;;8.87;1.60;;;;;;;32.69;32.71;99961.19;5100812;28;20464;-77
2021/07/15 07:20:18;;;;;;;9.60;2.03;;;;;;;32.94;32.47;99958.09;5099170;28;20455;-77
2021/07/15 07:22:45;;;;;;;8.60;2.00;;;;;;;33.10;32.56;99963.44;5100491;28;20460;-77
2021/07/15 07:25:14;;;;;;;5.57;1.50;;;;;;;33.19;31.80;99959.75;5100158;28;20477;-77
2021/07/15 07:27:42;;;;;;;4.80;1.30;;;;;;;33.39;30.52;99963.34;5099327;28;20439;-77
2021/07/15 07:30:11;;;;;;;8.60;1.80;;;;;;;32.85;32.16;99965.44;5099907;28;20490;-77
2021/07/15 07:32:38;;;;;;;9.93;1.70;;;;;;;31.00;34.52;99971.66;5098541;28;20447;-78
2021/07/15 07:35:05;;;;;;;7.23;1.70;;;;;;;28.69;40.11;99972.38;5096532;28;20495;-77
2021/07/15 07:37:33;;;;;;;7.40;1.63;;;;;;;30.53;37.33;99965.47;5100458;28;20691;-77
2021/07/15 07:40:00;;;;;;;11.60;2.47;;;;;;;31.87;34.34;99969.19;5100297;28;20436;-77
2021/07/15 07:42:28;;;;;;;11.47;2.30;;;;;;;31.45;34.90;99965.03;5099026;28;20471;-77
2021/07/15 07:44:55;;;;;;;17.43;3.27;;;;;;;30.16;38.00;99963.88;5100248;28;21034;-77
2021/07/15 07:47:22;;;;;;;11.00;2.43;;;;;;;29.42;39.20;99969.59;5099344;28;20463;-77
2021/07/15 07:49:48;;;;;;;9.00;2.00;;;;;;;30.24;38.04;99968.81;5097976;28;20454;-77
2021/07/15 07:52:15;;;;;;;12.20;2.40;;;;;;;32.43;32.72;99967.84;5099874;27;20475;-77
2021/07/15 07:54:42;;;;;;;9.43;2.10;;;;;;;32.79;31.62;99969.38;5099786;28;20982;-77
2021/07/15 07:57:09;;;;;;;23.70;4.37;;;;;;;30.40;33.79;99976.00;5098355;28;20503;-77
2021/07/15 07:59:38;;;;;;;7.30;1.57;;;;;;;28.61;38.11;99976.47;5100348;28;20467;-77
2021/07/15 08:02:04;;;;;;;14.87;2.37;;;;;;;27.70;41.54;99980.97;5100335;28;20475;-76
2021/07/15 08:04:31;;;;;;;5.50;1.43;;;;;;;26.44;44.88;99980.00;5103601;28;20487;-76
2021/07/15 08:06:58;;;;;;;10.80;2.27;;;;;;;25.33;48.47;99981.44;5103557;28;20479;-76
2021/07/15 08:09:25;;;;;;;9.40;2.10;;;;;;;25.52;49.73;99985.63;5104544;28;20427;-76
2021/07/15 08:11:54;;;;;;;6.03;1.63;;;;;;;24.87;50.77;99994.16;5102153;28;20500;-76
2021/07/15 08:14:23;;;;;;;6.17;1.70;;;;;;;24.66;51.82;99982.78;5104530;28;20486;-76
2021/07/15 08:16:52;;;;;;;6.00;1.90;;;;;;;24.00;51.98;99977.41;5103325;27;20490;-77
2021/07/15 08:19:20;;;;;;;7.97;1.90;;;;;;;24.22;52.60;99990.50;5102468;28;20492;-76
2021/07/15 08:21:47;;;;;;;6.13;1.67;;;;;;;24.08;51.69;99989.91;5103285;27;21003;-76
2021/07/15 08:24:13;;;;;;;9.60;2.03;;;;;;;24.81;50.56;99995.97;5103682;28;20546;-76
2021/07/15 08:26:40;;;;;;;3.50;1.30;;;;;;;26.26;46.98;100006.59;5102449;27;20532;-76
2021/07/15 08:29:06;;;;;;;12.27;2.40;;;;;;;27.66;43.61;100012.00;5104139;28;20515;-78
2021/07/15 08:31:33;;;;;;;16.03;3.00;;;;;;;27.26;45.23;100011.25;5103219;27;20528;-76
2021/07/15 08:34:01;;;;;;;26.60;4.73;;;;;;;27.07;46.13;100034.63;5099650;28;20886;-76
2021/07/15 08:36:31;;;;;;;11.33;2.37;;;;;;;25.97;48.07;100038.75;5103243;28;20512;-76
2021/07/15 08:38:57;;;;;;;9.70;2.17;;;;;;;25.77;48.50;100030.13;5103524;28;20530;-76
2021/07/15 08:41:24;;;;;;;19.00;4.10;;;;;;;24.89;52.04;100033.84;5101681;28;20475;-76
2021/07/15 08:43:51;;;;;;;11.33;2.40;;;;;;;24.85;52.15;100031.84;5103746;28;20533;-76
2021/07/15 08:46:19;;;;;;;5.10;1.60;;;;;;;24.89;52.25;100039.31;5103132;28;20503;-77
2021/07/15 08:48:46;;;;;;;15.30;2.83;;;;;;;24.37;53.53;100039.22;5102130;28;20505;-77
2021/07/15 08:51:15;;;;;;;11.97;2.77;;;;;;;24.02;54.46;100043.56;5102040;27;20469;-77
2021/07/15 08:53:43;;;;;;;5.20;1.60;;;;;;;23.22;55.69;100038.38;5103197;28;20581;-77
2021/07/15 08:58:54;;;;;;;6.10;1.63;;;;;;;23.61;54.63;100047.06;5103735;28;20445;-77
2021/07/15 09:01:21;;;;;;;9.93;2.17;;;;;;;23.93;54.71;100050.44;5103612;28;20542;-77
2021/07/15 09:03:48;;;;;;;12.80;2.83;;;;;;;23.71;53.71;100043.81;5102050;28;20486;-77
2021/07/15 09:06:16;;;;;;;7.00;1.80;;;;;;;24.28;54.16;100046.09;5102807;28;20505;-77
2021/07/15 09:08:43;;;;;;;8.27;1.97;;;;;;;24.54;50.96;100044.84;5103184;28;20493;-77
2021/07/15 09:11:10;;;;;;;16.93;2.90;;;;;;;24.86;51.88;100056.22;5101196;28;20474;-78
2021/07/15 09:13:36;;;;;;;11.07;2.40;;;;;;;24.86;50.73;100048.03;5102208;28;20526;-77
2021/07/15 09:16:12;;;;;;;5.47;2.00;;;;;;;24.98;50.38;100045.25;5102918;28;20464;-78
2021/07/15 09:18:54;;;;;;;9.00;2.13;;;;;;;24.87;51.52;100054.31;5101516;28;21080;-77
2021/07/15 09:21:25;;;;;;;12.40;2.60;;;;;;;25.07;50.80;100056.66;5102506;28;21040;-78
2021/07/15 09:23:52;;;;;;;8.07;1.70;;;;;;;24.44;51.39;100054.44;5102799;28;20492;-77
2021/07/15 09:26:19;;;;;;;37.90;6.57;;;;;;;24.35;51.68;100058.56;5094796;28;20515;-78
2021/07/15 09:28:47;;;;;;;11.60;2.40;;;;;;;24.55;51.82;100054.72;5102700;28;20456;-77
2021/07/15 09:31:19;;;;;;;7.30;2.50;;;;;;;24.44;51.62;100059.91;5101435;28;20463;-77
2021/07/15 09:33:47;;;;;;;6.43;1.83;;;;;;;24.46;52.29;100064.28;5100425;28;20519;-77
2021/07/15 09:36:17;;;;;;;12.53;2.73;;;;;;;24.74;51.83;100064.44;5100407;28;20529;-77
2021/07/15 09:38:47;;;;;;;8.57;1.80;;;;;;;24.84;50.44;100063.81;5102069;28;20602;-77
2021/07/15 09:41:18;;;;;;;17.90;3.40;;;;;;;25.41;48.85;100065.03;5100983;28;20468;-77
2021/07/15 09:43:45;;;;;;;11.63;2.67;;;;;;;25.88;49.29;100059.34;5101757;28;20475;-77
2021/07/15 09:46:18;;;;;;;15.73;3.27;;;;;;;26.58;47.11;100059.97;5101327;28;20522;-77
2021/07/15 09:48:45;;;;;;;14.33;3.00;;;;;;;26.18;46.96;100053.63;5100836;28;20463;-77
2021/07/15 09:51:14;;;;;;;11.00;2.73;;;;;;;25.72;46.93;100056.34;5100064;27;20844;-77
2021/07/15 09:53:41;;;;;;;8.87;2.30;;;;;;;25.99;47.80;100063.13;5101787;28;20491;-77
2021/07/15 09:56:11;;;;;;;13.80;2.77;;;;;;;26.27;45.29;100054.03;5100325;28;20508;-77
2021/07/15 09:58:39;;;;;;;15.67;3.50;;;;;;;26.21;46.96;100053.09;5101822;28;21013;-77
2021/07/15 10:01:07;;;;;;;8.87;2.27;;;;;;;26.34;45.95;100051.94;5101683;28;20508;-77
2021/07/15 10:03:35;;;;;;;13.33;2.80;;;;;;;26.39;46.41;100052.03;5100824;28;20479;-77
2021/07/15 10:06:03;;;;;;;6.03;1.80;;;;;;;26.90;44.17;100060.19;5101978;28;20478;-77
2021/07/15 10:08:31;;;;;;;7.27;2.50;;;;;;;26.36;46.54;100063.50;5102000;28;20445;-77
2021/07/15 10:11:15;;;;;;;14.33;3.50;;;;;;;27.17;44.19;100059.47;5099738;27;20554;-77
2021/07/15 10:13:42;;;;;;;10.83;2.70;;;;;;;27.87;41.50;100051.47;5101528;28;20519;-77
2021/07/15 10:16:10;;;;;;;7.67;2.13;;;;;;;28.06;41.06;100055.50;5101367;27;20467;-76
2021/07/15 10:18:38;;;;;;;9.90;2.93;;;;;;;28.87;40.33;100048.13;5100143;28;20490;-77
2021/07/15 10:21:06;;;;;;;7.00;2.10;;;;;;;29.33;39.07;100053.03;5101248;28;20463;-78
2021/07/15 10:23:34;;;;;;;8.70;2.30;;;;;;;28.02;41.34;100053.53;5101674;28;20538;-78
2021/07/15 10:26:02;;;;;;;7.50;2.17;;;;;;;29.66;39.43;100049.81;5099198;28;20505;-78
2021/07/15 10:28:31;;;;;;;8.13;2.17;;;;;;;31.41;34.76;100046.03;5101139;28;20478;-78
2021/07/15 10:31:00;;;;;;;10.50;2.47;;;;;;;32.11;34.77;100045.06;5100758;28;20467;-78
2021/07/15 10:33:27;;;;;;;11.07;2.63;;;;;;;32.13;33.63;100049.16;5100148;28;20456;-78
2021/07/15 10:35:53;;;;;;;7.00;2.10;;;;;;;30.97;35.44;100045.66;5098455;28;20501;-77
2021/07/15 10:38:21;;;;;;;8.53;2.23;;;;;;;30.67;34.56;100059.53;5101169;28;20485;-77
2021/07/15 10:40:48;;;;;;;9.20;2.27;;;;;;;31.25;35.37;100050.78;5100521;28;20474;-78
2021/07/15 10:43:14;;;;;;;6.87;2.10;;;;;;;29.54;38.11;100054.75;5100019;28;20961;-78
2021/07/15 10:45:42;;;;;;;7.70;1.93;;;;;;;29.77;35.98;100045.19;5101310;27;20475;-78
2021/07/15 10:48:10;;;;;;;8.90;2.43;;;;;;;29.73;37.52;100048.72;5101344;28;20452;-77
2021/07/15 10:50:37;;;;;;;7.17;2.27;;;;;;;27.51;39.68;100054.66;5098634;27;20647;-77
2021/07/15 10:53:04;;;;;;;5.97;1.97;;;;;;;29.15;39.22;100059.81;5101544;28;20548;-78
2021/07/15 10:55:31;;;;;;;6.13;2.10;;;;;;;28.63;38.46;100054.06;5099703;28;20579;-77
2021/07/15 10:57:58;;;;;;;10.40;2.30;;;;;;;28.69;37.51;100066.72;5099821;28;20645;-77
2021/07/15 11:00:27;;;;;;;9.30;3.50;;;;;;;29.59;37.13;100070.47;5100610;28;20592;-77
2021/07/15 11:03:17;;;;;;;6.47;1.90;;;;;;;28.31;38.93;100071.38;5101524;28;20431;-77
2021/07/15 11:05:49;;;;;;;8.13;2.50;;;;;;;25.37;45.42;100073.75;5099231;27;20496;-77
2021/07/15 11:08:16;;;;;;;7.83;2.33;;;;;;;27.50;40.28;100074.13;5101177;28;20444;-78
2021/07/15 11:10:43;;;;;;;4.97;1.77;;;;;;;27.01;43.02;100073.00;5100550;27;20494;-77
2021/07/15 11:13:10;;;;;;;4.93;1.73;;;;;;;27.41;42.21;100082.00;5100368;28;20477;-77
2021/07/15 11:15:48;;;;;;;5.93;1.97;;;;;;;28.22;41.84;100096.88;5100329;27;20485;-77
2021/07/15 11:18:51;;;;;;;6.97;2.13;;;;;;;28.52;39.81;100088.03;5099511;28;20451;-77
2021/07/15 11:21:37;;;;;;;5.87;2.00;;;;;;;27.82;41.35;100087.13;5099896;27;20475;-77
2021/07/15 11:24:52;;;;;;;9.40;2.33;;;;;;;27.75;41.13;100084.59;5101045;28;20459;-78
2021/07/15 11:27:52;;;;;;;7.40;1.80;;;;;;;27.22;40.53;100085.06;5097347;28;20482;-78
2021/07/15 11:30:41;;;;;;;6.60;2.37;;;;;;;27.37;41.92;100084.44;5095197;27;20806;-78
2021/07/15 11:33:30;;;;;;;4.77;1.90;;;;;;;27.60;42.68;100087.97;5099274;28;20901;-77
2021/07/15 11:36:00;;;;;;;8.40;2.43;;;;;;;27.71;42.09;100091.69;5097333;27;20551;-78
2021/07/15 11:38:28;;;;;;;5.40;1.70;;;;;;;28.23;40.14;100093.03;5100425;28;20455;-78